Time;durP1;ratioP1;P1;durP2;ratioP2;P2;SDS_P1;SDS_P2;PMS_P1;PMS_P2;Temp;Humidity;BMP_temperature;BMP_pressure;BME280_temperature;BME280_humidity;BME280_pressure;Samples;Min_cycle;Max_cycle;Signal;HPM_P1;HPM_P2
2024/01/21 00:00:12;;;;;;;16.43;6.67;;;-6.20;99.90;;;;;;5031141;28;20178;-82
2024/01/21 00:02:38;;;;;;;17.53;6.87;;;-6.20;99.90;;;;;;5031531;28;20907;-74
2024/01/21 00:05:04;;;;;;;12.90;6.50;;;-6.10;99.90;;;;;;5043157;28;20830;-74
2024/01/21 00:07:29;;;;;;;11.30;5.80;;;-6.10;99.90;;;;;;5030975;28;20459;-83
2024/01/21 00:09:55;;;;;;;16.83;7.10;;;-6.00;99.90;;;;;;5027060;28;20185;-82
2024/01/21 00:12:21;;;;;;;11.53;5.30;;;-5.50;99.90;;;;;;5030523;28;20236;-82
2024/01/21 00:14:46;;;;;;;12.63;4.90;;;-6.00;99.90;;;;;;5039731;28;20356;-83
2024/01/21 00:17:12;;;;;;;12.23;4.93;;;-6.00;99.90;;;;;;5031728;28;20496;-82
2024/01/21 00:19:37;;;;;;;17.00;6.23;;;-5.70;99.90;;;;;;5031029;28;20202;-82
2024/01/21 00:22:03;;;;;;;9.73;5.17;;;-5.90;99.90;;;;;;5022550;28;20182;-82
2024/01/21 00:24:29;;;;;;;11.03;4.70;;;-5.90;99.90;;;;;;5034669;28;20187;-74
2024/01/21 00:26:54;;;;;;;11.80;5.23;;;-4.50;99.90;;;;;;5030039;28;20646;-75
2024/01/21 00:29:20;;;;;;;9.57;4.53;;;-4.60;99.90;;;;;;5031596;28;20285;-74
2024/01/21 00:31:45;;;;;;;13.03;5.30;;;-5.10;99.90;;;;;;5041767;28;20183;-74
2024/01/21 00:34:10;;;;;;;8.20;4.57;;;-6.00;99.90;;;;;;5029400;28;20693;-74
2024/01/21 00:36:36;;;;;;;12.40;5.30;;;-6.00;99.90;;;;;;5030102;28;20186;-75
2024/01/21 00:39:02;;;;;;;17.23;7.73;;;-5.90;99.90;;;;;;5043420;28;20268;-74
2024/01/21 00:41:27;;;;;;;22.83;6.97;;;-6.00;99.90;;;;;;5029833;28;20438;-74
2024/01/21 00:43:53;;;;;;;15.40;6.63;;;-5.90;99.90;;;;;;5038068;28;20421;-82
2024/01/21 00:46:18;;;;;;;10.40;5.00;;;-5.30;99.90;;;;;;5042845;28;20196;-82
2024/01/21 00:48:44;;;;;;;14.10;5.40;;;-5.90;99.90;;;;;;5039502;28;20646;-82
2024/01/21 00:51:09;;;;;;;14.03;5.40;;;-5.90;99.90;;;;;;5034689;28;20222;-82
2024/01/21 00:53:35;;;;;;;10.20;5.07;;;-6.00;99.90;;;;;;5033539;28;20490;-75
2024/01/21 00:56:00;;;;;;;13.10;5.10;;;-6.00;99.90;;;;;;5033497;28;20186;-75
2024/01/21 00:58:26;;;;;;;8.27;3.67;;;-5.10;99.90;;;;;;5032868;28;20293;-74
2024/01/21 01:00:51;;;;;;;13.90;5.30;;;-5.90;99.90;;;;;;5033363;28;20190;-75
2024/01/21 01:03:17;;;;;;;13.47;5.73;;;-4.90;99.90;;;;;;5034256;28;20658;-82
2024/01/21 01:05:42;;;;;;;9.87;4.80;;;-5.90;99.90;;;;;;5046506;28;20190;-82
2024/01/21 01:08:08;;;;;;;11.70;5.77;;;-5.90;99.90;;;;;;5034111;28;20206;-74
2024/01/21 01:10:33;;;;;;;11.80;5.73;;;-5.80;99.90;;;;;;5032791;28;20221;-74
2024/01/21 01:12:59;;;;;;;17.10;6.30;;;-5.80;99.90;;;;;;5033133;28;20324;-75
2024/01/21 01:15:24;;;;;;;12.30;5.70;;;-5.90;99.90;;;;;;5041445;28;20761;-74
2024/01/21 01:17:51;;;;;;;13.50;5.90;;;-4.60;99.90;;;;;;5034426;28;20198;-82
2024/01/21 01:20:17;;;;;;;11.53;5.50;;;-6.00;99.90;;;;;;5036573;28;20206;-82
2024/01/21 01:22:42;;;;;;;12.17;5.83;;;-6.10;99.90;;;;;;5048350;28;20474;-74
2024/01/21 01:25:08;;;;;;;15.27;6.77;;;-6.10;99.90;;;;;;5032817;28;20277;-74
2024/01/21 01:27:34;;;;;;;22.60;8.13;;;-6.10;99.90;;;;;;5046138;28;20204;-82
2024/01/21 01:29:59;;;;;;;14.33;6.00;;;-6.10;99.90;;;;;;5033553;28;20425;-81
2024/01/21 01:32:25;;;;;;;13.83;6.70;;;-5.30;99.90;;;;;;5033725;28;20236;-74
2024/01/21 01:34:53;;;;;;;31.50;6.63;;;-6.10;99.90;;;;;;5032275;28;20670;-73
2024/01/21 01:37:19;;;;;;;15.10;6.97;;;-6.20;99.90;;;;;;5032639;28;20177;-82
2024/01/21 01:39:44;;;;;;;18.50;6.90;;;-6.20;99.90;;;;;;5032945;28;20417;-82
2024/01/21 01:42:10;;;;;;;28.40;8.67;;;-6.20;99.90;;;;;;5032447;28;20218;-82
2024/01/21 01:44:38;;;;;;;19.20;7.03;;;-6.10;99.90;;;;;;5037812;28;20551;-82
2024/01/21 01:47:04;;;;;;;21.20;7.27;;;-5.90;99.90;;;;;;5032786;28;20181;-82
2024/01/21 01:49:30;;;;;;;20.10;7.50;;;-6.40;99.90;;;;;;5032145;28;20807;-82
2024/01/21 01:51:56;;;;;;;20.10;7.30;;;-6.50;99.90;;;;;;5044712;28;20190;-81
2024/01/21 01:54:23;;;;;;;18.20;7.90;;;-6.50;99.90;;;;;;5032212;28;20194;-81
2024/01/21 01:56:50;;;;;;;26.60;8.60;;;-6.40;99.90;;;;;;5045821;28;20408;-82
2024/01/21 01:59:18;;;;;;;16.60;7.37;;;-6.50;99.90;;;;;;5032228;28;20471;-82
2024/01/21 02:01:44;;;;;;;15.40;6.57;;;-6.30;99.90;;;;;;5032890;28;20449;-82
2024/01/21 02:04:11;;;;;;;16.77;7.37;;;-6.30;99.90;;;;;;5031683;28;20476;-74
2024/01/21 02:06:40;;;;;;;18.97;7.00;;;-6.50;99.90;;;;;;5031988;28;20471;-74
2024/01/21 02:09:06;;;;;;;14.87;6.00;;;-6.50;99.90;;;;;;5032011;28;20433;-74
2024/01/21 02:11:32;;;;;;;11.60;6.50;;;-6.40;99.90;;;;;;5032160;28;20829;-74
2024/01/21 02:13:57;;;;;;;15.03;6.70;;;-6.30;99.90;;;;;;5034985;28;20221;-74
2024/01/21 02:16:23;;;;;;;16.73;6.90;;;-6.20;99.90;;;;;;5036579;28;20418;-74
2024/01/21 02:18:50;;;;;;;17.53;6.53;;;-6.20;99.90;;;;;;5031368;28;20237;-74
2024/01/21 02:21:15;;;;;;;11.17;5.53;;;-6.20;99.90;;;;;;5031739;28;20210;-74
2024/01/21 02:23:43;;;;;;;14.20;6.40;;;-6.10;99.90;;;;;;5031993;28;20460;-81
2024/01/21 02:26:08;;;;;;;13.20;6.20;;;-6.10;99.90;;;;;;5031995;28;20178;-81
2024/01/21 02:28:34;;;;;;;14.60;5.47;;;-6.00;99.90;;;;;;5021848;28;20467;-74
2024/01/21 02:30:59;;;;;;;18.90;5.53;;;-5.80;99.90;;;;;;5036729;28;20217;-73
2024/01/21 02:33:26;;;;;;;12.37;5.00;;;-5.60;99.90;;;;;;5031546;28;20224;-81
2024/01/21 02:35:51;;;;;;;8.93;4.67;;;-5.30;99.90;;;;;;5047260;28;20209;-81
2024/01/21 02:38:17;;;;;;;14.37;5.53;;;-5.10;99.90;;;;;;5044217;28;20417;-74
2024/01/21 02:40:43;;;;;;;8.70;4.70;;;-4.90;99.90;;;;;;5031470;28;20638;-74
2024/01/21 02:43:08;;;;;;;11.37;5.57;;;-4.80;99.90;;;;;;5031299;28;20177;-81
2024/01/21 02:45:35;;;;;;;11.10;4.30;;;-4.60;99.90;;;;;;5037491;28;20437;-81
2024/01/21 02:48:00;;;;;;;9.57;4.70;;;-4.50;99.90;;;;;;5032299;28;20187;-81
2024/01/21 02:50:26;;;;;;;13.37;3.87;;;-4.40;99.90;;;;;;5031909;28;20430;-81
2024/01/21 02:52:51;;;;;;;7.97;3.80;;;-4.30;99.90;;;;;;5038737;28;20232;-81
2024/01/21 02:55:17;;;;;;;9.40;5.07;;;-4.30;99.90;;;;;;5037388;28;20206;-80
2024/01/21 02:57:42;;;;;;;8.53;3.73;;;-4.40;99.90;;;;;;5031668;28;20175;-81
2024/01/21 03:00:09;;;;;;;18.20;5.33;;;-4.40;99.90;;;;;;5031887;28;20536;-81
2024/01/21 03:02:35;;;;;;;10.93;5.00;;;-4.40;99.90;;;;;;5032031;28;20182;-74
2024/01/21 03:05:00;;;;;;;8.90;4.10;;;-4.50;99.90;;;;;;5030856;28;20445;-74
2024/01/21 03:07:25;;;;;;;8.03;4.10;;;-4.50;99.90;;;;;;5030920;28;20187;-74
2024/01/21 03:09:51;;;;;;;10.00;5.13;;;-4.60;99.90;;;;;;5026234;28;20181;-75
2024/01/21 03:12:17;;;;;;;9.67;4.23;;;-4.60;99.90;;;;;;5030658;28;20278;-81
2024/01/21 03:14:42;;;;;;;8.73;4.50;;;-4.10;99.90;;;;;;5030710;28;20690;-81
2024/01/21 03:17:08;;;;;;;10.70;4.40;;;-4.10;99.90;;;;;;5011471;28;20222;-81
2024/01/21 03:19:34;;;;;;;9.70;4.40;;;-4.50;99.90;;;;;;5020556;28;20651;-74
2024/01/21 03:22:00;;;;;;;8.40;3.80;;;-4.60;99.90;;;;;;5018752;28;20425;-74
2024/01/21 03:24:25;;;;;;;11.67;4.67;;;-4.60;99.90;;;;;;5016188;28;20636;-74
2024/01/21 03:26:51;;;;;;;11.40;3.90;;;-4.60;99.90;;;;;;5010916;28;20422;-74
2024/01/21 03:29:17;;;;;;;13.80;3.00;;;-4.60;99.90;;;;;;5010636;28;20195;-74
2024/01/21 03:31:42;;;;;;;7.97;4.03;;;-4.60;99.90;;;;;;5011296;28;20179;-74
2024/01/21 03:34:08;;;;;;;11.83;5.00;;;-4.60;99.90;;;;;;5010434;28;20218;-74
2024/01/21 03:36:33;;;;;;;9.87;5.30;;;-4.70;99.90;;;;;;5009784;28;20546;-74
2024/01/21 03:38:59;;;;;;;7.93;3.60;;;-4.70;99.90;;;;;;5011087;28;20182;-74
2024/01/21 03:41:24;;;;;;;9.13;4.60;;;-4.70;99.90;;;;;;5011149;28;20186;-74
2024/01/21 03:43:50;;;;;;;6.03;3.17;;;-4.60;99.90;;;;;;5019622;28;20182;-81
2024/01/21 03:46:16;;;;;;;10.30;5.17;;;-4.60;99.90;;;;;;5016273;28;20179;-81
2024/01/21 03:48:42;;;;;;;5.40;2.93;;;-4.60;99.90;;;;;;5016353;28;20695;-81
2024/01/21 03:51:10;;;;;;;8.50;4.27;;;-4.70;99.90;;;;;;5017658;28;20422;-81
2024/01/21 03:53:37;;;;;;;10.03;3.60;;;-4.70;99.90;;;;;;5017291;28;20221;-81
2024/01/21 03:56:03;;;;;;;8.80;3.87;;;-4.70;99.90;;;;;;5013836;28;20489;-81
2024/01/21 03:58:28;;;;;;;10.57;4.10;;;-4.60;99.90;;;;;;5012444;28;20433;-81
2024/01/21 04:00:54;;;;;;;9.67;3.67;;;-4.60;99.90;;;;;;5011859;28;20183;-80
2024/01/21 04:03:19;;;;;;;12.57;4.20;;;-4.50;99.90;;;;;;5010600;28;20274;-81
2024/01/21 04:05:45;;;;;;;7.97;3.40;;;-4.50;99.90;;;;;;5010838;28;20226;-81
2024/01/21 04:08:10;;;;;;;5.83;3.03;;;-4.40;99.90;;;;;;5011096;28;20194;-74
2024/01/21 04:10:36;;;;;;;8.73;3.70;;;-4.50;99.90;;;;;;5010674;28;20298;-74
2024/01/21 04:13:01;;;;;;;5.10;2.90;;;-4.40;99.90;;;;;;5010151;28;20559;-74
2024/01/21 04:15:27;;;;;;;8.47;3.57;;;-4.40;99.90;;;;;;5034009;28;20289;-75
2024/01/21 04:17:52;;;;;;;6.50;3.13;;;-4.40;99.90;;;;;;5030909;28;20182;-74
2024/01/21 04:20:18;;;;;;;7.13;4.00;;;-4.30;99.90;;;;;;5032355;28;20635;-74
2024/01/21 04:22:43;;;;;;;5.30;3.20;;;-5.70;99.90;;;;;;5032569;28;20179;-74
2024/01/21 04:25:09;;;;;;;5.33;3.33;;;-4.40;99.90;;;;;;5032822;28;20194;-75
2024/01/21 04:27:34;;;;;;;4.50;2.83;;;-4.40;99.90;;;;;;5032191;28;20633;-74
2024/01/21 04:30:00;;;;;;;5.83;3.10;;;-4.40;99.90;;;;;;5032455;28;20597;-74
2024/01/21 04:32:25;;;;;;;7.07;3.17;;;-4.40;99.90;;;;;;5028687;28;20196;-74
2024/01/21 04:34:51;;;;;;;9.03;3.07;;;-4.30;99.90;;;;;;5044477;28;20212;-74
2024/01/21 04:37:17;;;;;;;7.40;3.47;;;-4.30;99.90;;;;;;5032814;28;20658;-75
2024/01/21 04:39:42;;;;;;;7.17;3.40;;;-4.20;99.90;;;;;;5045172;28;20187;-74
2024/01/21 04:42:08;;;;;;;8.57;3.90;;;-4.20;99.90;;;;;;5032126;28;20630;-74
2024/01/21 04:44:33;;;;;;;6.80;3.47;;;-4.30;99.90;;;;;;5036537;28;20195;-81
2024/01/21 04:46:59;;;;;;;8.23;3.70;;;-4.30;99.90;;;;;;5032664;28;20277;-80
2024/01/21 04:49:24;;;;;;;7.70;3.53;;;-4.30;99.90;;;;;;5044679;28;20194;-74
2024/01/21 04:51:50;;;;;;;6.93;3.50;;;-4.30;99.90;;;;;;5032514;28;20202;-74
2024/01/21 04:54:15;;;;;;;14.63;3.43;;;-4.30;99.90;;;;;;5032032;28;20293;-74
2024/01/21 04:56:41;;;;;;;5.67;3.10;;;-4.30;99.90;;;;;;5032216;28;20206;-75
2024/01/21 04:59:06;;;;;;;7.40;3.97;;;-4.30;99.90;;;;;;5031930;28;20178;-74
2024/01/21 05:01:33;;;;;;;6.77;3.20;;;-4.40;99.90;;;;;;5032354;28;20174;-74
2024/01/21 05:03:58;;;;;;;8.90;4.30;;;-4.40;99.90;;;;;;5031599;28;20253;-80
2024/01/21 05:06:24;;;;;;;7.47;3.83;;;-4.50;99.90;;;;;;5032165;28;20517;-81
2024/01/21 05:08:49;;;;;;;9.83;3.73;;;-4.50;99.90;;;;;;5032112;28;20186;-81
2024/01/21 05:11:15;;;;;;;6.83;2.97;;;-4.50;99.90;;;;;;5032123;28;20197;-80
2024/01/21 05:13:41;;;;;;;10.73;3.93;;;-4.50;99.90;;;;;;5008129;28;1023720;-74
2024/01/21 05:16:07;;;;;;;9.77;4.70;;;-4.50;99.90;;;;;;5026466;28;20202;-74
2024/01/21 05:18:32;;;;;;;11.67;4.03;;;-4.50;99.90;;;;;;5019383;28;20455;-74
2024/01/21 05:20:58;;;;;;;6.23;3.77;;;-4.60;99.90;;;;;;5032984;28;20229;-75
2024/01/21 05:23:23;;;;;;;10.10;3.70;;;-4.60;99.90;;;;;;5032728;28;20684;-74
2024/01/21 05:25:52;;;;;;;9.53;3.60;;;-4.60;99.90;;;;;;5032884;28;20214;-75
2024/01/21 05:28:18;;;;;;;5.73;2.47;;;-4.60;99.90;;;;;;5019266;28;20185;-75
2024/01/21 05:30:43;;;;;;;8.23;3.50;;;-4.60;99.90;;;;;;5032872;28;20418;-75
2024/01/21 05:33:09;;;;;;;9.23;3.67;;;-4.60;99.90;;;;;;5032217;28;20186;-75
2024/01/21 05:35:34;;;;;;;8.30;3.73;;;-4.50;99.90;;;;;;5032750;28;20684;-75
2024/01/21 05:38:00;;;;;;;11.10;3.90;;;-4.50;99.90;;;;;;5032629;28;20281;-81
2024/01/21 05:40:25;;;;;;;5.80;3.03;;;-4.60;99.90;;;;;;5046316;28;20268;-81
2024/01/21 05:42:51;;;;;;;8.00;3.23;;;-4.50;99.90;;;;;;5032647;28;20185;-80
2024/01/21 05:45:17;;;;;;;7.87;3.57;;;-4.50;99.90;;;;;;5034595;28;20225;-81
2024/01/21 05:47:42;;;;;;;10.33;4.27;;;-4.60;99.90;;;;;;5046589;28;20191;-74
2024/01/21 05:50:08;;;;;;;16.00;4.03;;;-4.60;99.90;;;;;;5032174;28;20194;-74
2024/01/21 05:52:35;;;;;;;6.73;4.03;;;-4.20;99.90;;;;;;5032400;28;20182;-74
2024/01/21 05:55:00;;;;;;;9.00;4.30;;;-4.30;99.90;;;;;;5032144;28;20202;-74
2024/01/21 05:57:26;;;;;;;7.10;3.70;;;-4.10;99.90;;;;;;5032633;28;20496;-75
2024/01/21 05:59:51;;;;;;;14.33;4.57;;;-3.90;99.90;;;;;;5032076;28;20190;-74
2024/01/21 06:02:18;;;;;;;11.33;4.17;;;-3.80;99.90;;;;;;5031218;28;20191;-74
2024/01/21 06:04:43;;;;;;;10.97;4.77;;;-3.70;99.90;;;;;;5031563;28;20224;-74
2024/01/21 06:07:09;;;;;;;6.57;3.50;;;-3.60;99.90;;;;;;5045481;28;20776;-74
2024/01/21 06:09:34;;;;;;;8.53;3.63;;;-3.60;99.90;;;;;;5032731;28;20194;-81
2024/01/21 06:12:00;;;;;;;6.63;3.40;;;-3.60;99.90;;;;;;5032519;28;20190;-81
2024/01/21 06:14:25;;;;;;;9.13;3.50;;;-3.60;99.90;;;;;;5039215;28;20225;-80
2024/01/21 06:16:54;;;;;;;6.30;3.87;;;-3.60;99.90;;;;;;5033077;28;20194;-81
2024/01/21 06:19:19;;;;;;;8.60;4.33;;;-2.20;99.90;;;;;;5031165;28;20183;-74
2024/01/21 06:21:45;;;;;;;7.23;3.60;;;-3.50;99.90;;;;;;5031575;28;20876;-74
2024/01/21 06:24:12;;;;;;;6.67;3.70;;;-3.50;99.90;;;;;;5031459;28;20186;-75
2024/01/21 06:26:37;;;;;;;7.40;3.50;;;-3.50;99.90;;;;;;5031623;28;20179;-74
2024/01/21 06:29:03;;;;;;;8.10;4.40;;;-3.50;99.90;;;;;;5031159;28;20427;-81
2024/01/21 06:31:29;;;;;;;7.77;4.23;;;-3.60;99.90;;;;;;5031495;28;20524;-81
2024/01/21 06:33:55;;;;;;;9.93;3.90;;;-3.60;99.90;;;;;;5030851;28;20425;-75
2024/01/21 06:36:22;;;;;;;9.30;3.83;;;-3.60;99.90;;;;;;5031289;28;20421;-74
2024/01/21 06:38:48;;;;;;;8.20;3.57;;;-3.60;99.90;;;;;;5031233;28;20178;-74
2024/01/21 06:41:14;;;;;;;12.93;3.47;;;-3.70;99.90;;;;;;5030854;28;20424;-74
2024/01/21 06:43:40;;;;;;;11.53;4.23;;;-3.60;99.90;;;;;;5035549;28;20174;-74
2024/01/21 06:46:06;;;;;;;9.33;4.00;;;-3.60;99.90;;;;;;5032120;28;20427;-75
2024/01/21 06:48:31;;;;;;;7.47;3.67;;;-3.60;99.90;;;;;;5030932;28;20467;-81
2024/01/21 06:50:57;;;;;;;8.47;4.10;;;-3.40;99.90;;;;;;5031207;28;20490;-81
2024/01/21 06:53:22;;;;;;;7.73;4.20;;;-3.40;99.90;;;;;;5031052;28;20256;-74
2024/01/21 06:55:48;;;;;;;10.80;4.30;;;-3.40;99.90;;;;;;5030823;28;20222;-74
2024/01/21 06:58:13;;;;;;;9.43;4.30;;;-3.40;99.90;;;;;;5030557;28;20190;-74
2024/01/21 07:00:39;;;;;;;11.17;5.00;;;-3.40;99.90;;;;;;5030888;28;20183;-74
2024/01/21 07:03:04;;;;;;;7.80;4.13;;;-3.40;99.90;;;;;;5030933;28;20209;-75
2024/01/21 07:05:30;;;;;;;11.00;3.67;;;-3.50;99.90;;;;;;5025881;28;20276;-75
2024/01/21 07:07:56;;;;;;;16.50;4.33;;;-3.50;99.90;;;;;;5031163;28;20183;-75
2024/01/21 07:10:23;;;;;;;9.07;4.70;;;-3.50;99.90;;;;;;5030580;28;20182;-75
2024/01/21 07:12:49;;;;;;;9.60;5.00;;;-3.40;99.90;;;;;;5030948;28;20432;-81
2024/01/21 07:15:14;;;;;;;16.80;5.00;;;-3.40;99.90;;;;;;5038907;28;20856;-81
2024/01/21 07:17:40;;;;;;;9.90;4.87;;;-3.30;99.90;;;;;;5031268;28;20194;-82
2024/01/21 07:20:06;;;;;;;12.07;5.37;;;-3.20;99.90;;;;;;5012866;28;20710;-81
2024/01/21 07:22:32;;;;;;;12.13;5.00;;;-3.20;99.90;;;;;;5031136;28;20186;-81
2024/01/21 07:24:57;;;;;;;11.87;4.77;;;-3.20;99.90;;;;;;5030553;28;20508;-81
2024/01/21 07:27:23;;;;;;;12.70;5.07;;;-3.10;99.90;;;;;;5031772;28;20190;-75
2024/01/21 07:29:48;;;;;;;8.80;4.03;;;-3.10;99.90;;;;;;5030954;28;20678;-74
2024/01/21 07:32:14;;;;;;;8.53;4.27;;;-2.90;99.90;;;;;;5026548;28;20189;-74
2024/01/21 07:34:39;;;;;;;9.47;4.83;;;-2.80;99.90;;;;;;5031177;28;20693;-74
2024/01/21 07:37:05;;;;;;;11.17;4.93;;;-2.80;99.90;;;;;;5043529;28;20541;-73
2024/01/21 07:39:31;;;;;;;12.57;5.23;;;-2.80;99.90;;;;;;5038586;28;20204;-80
2024/01/21 07:41:56;;;;;;;12.60;4.07;;;-2.70;99.90;;;;;;5050512;28;20196;-80
2024/01/21 07:44:21;;;;;;;21.80;4.90;;;-2.70;99.90;;;;;;5035410;28;20186;-74
2024/01/21 07:46:48;;;;;;;17.27;5.40;;;-2.70;99.90;;;;;;5030403;28;20181;-74
2024/01/21 07:49:13;;;;;;;15.10;5.90;;;-2.60;99.90;;;;;;5030083;28;20178;-80
2024/01/21 07:51:39;;;;;;;13.30;5.30;;;-2.60;99.90;;;;;;5030612;28;20432;-80
2024/01/21 07:54:04;;;;;;;14.27;6.03;;;-2.60;99.90;;;;;;5034267;28;20269;-74
2024/01/21 07:56:30;;;;;;;14.13;4.80;;;-2.60;99.90;;;;;;5035364;28;20182;-74
2024/01/21 07:58:55;;;;;;;10.60;4.47;;;-2.60;99.90;;;;;;5035099;28;20674;-81
2024/01/21 08:01:23;;;;;;;9.27;4.77;;;-2.50;99.90;;;;;;5036029;28;20222;-81
2024/01/21 08:03:48;;;;;;;11.33;4.90;;;-2.50;99.90;;;;;;5035358;28;20210;-81
2024/01/21 08:06:14;;;;;;;8.53;4.57;;;-2.40;99.90;;;;;;5036814;28;20436;-81
2024/01/21 08:08:39;;;;;;;8.93;4.40;;;-2.30;99.90;;;;;;5035312;28;20225;-81
2024/01/21 08:11:05;;;;;;;9.17;4.03;;;-2.10;99.90;;;;;;5035991;28;20188;-81
2024/01/21 08:13:31;;;;;;;6.20;3.87;;;-2.00;99.90;;;;;;5034965;28;20190;-82
2024/01/21 08:15:57;;;;;;;8.23;3.93;;;-2.00;99.90;;;;;;5055474;28;20263;-82
2024/01/21 08:18:22;;;;;;;8.77;4.33;;;-1.90;99.90;;;;;;5051186;28;20221;-82
2024/01/21 08:20:48;;;;;;;8.33;3.80;;;-1.80;99.90;;;;;;5037724;28;20174;-82
2024/01/21 08:23:14;;;;;;;8.50;5.50;;;-1.60;99.90;;;;;;5037942;28;20198;-80
2024/01/21 08:25:40;;;;;;;11.07;5.63;;;-1.60;99.90;;;;;;5038880;28;20971;-80
2024/01/21 08:28:05;;;;;;;12.90;5.37;;;-1.70;99.90;;;;;;5035678;28;20432;-74
2024/01/21 08:30:31;;;;;;;8.40;4.30;;;-1.60;99.90;;;;;;5033550;28;20188;-74
2024/01/21 08:32:56;;;;;;;13.17;6.00;;;-1.50;99.90;;;;;;5034022;28;20515;-81
2024/01/21 08:35:22;;;;;;;15.60;5.33;;;-1.50;99.90;;;;;;5033438;28;20563;-81
2024/01/21 08:37:47;;;;;;;11.00;4.90;;;-1.40;99.90;;;;;;5033466;28;20175;-81
2024/01/21 08:40:13;;;;;;;11.20;5.40;;;-1.40;99.90;;;;;;5033654;28;20646;-81
2024/01/21 08:42:39;;;;;;;10.03;5.40;;;-1.20;99.90;;;;;;5033611;28;20175;-81
2024/01/21 08:45:05;;;;;;;10.13;5.23;;;-1.20;99.90;;;;;;5038356;28;20214;-81
2024/01/21 08:47:31;;;;;;;12.17;5.43;;;-1.10;99.90;;;;;;5033220;28;20187;-74
2024/01/21 08:49:57;;;;;;;11.40;6.23;;;-0.10;99.90;;;;;;5033141;28;20996;-74
2024/01/21 08:52:22;;;;;;;8.07;4.37;;;-1.00;99.90;;;;;;5033538;28;20224;-74
2024/01/21 08:54:48;;;;;;;12.57;5.53;;;-1.00;99.90;;;;;;5033315;28;20658;-74
2024/01/21 08:57:13;;;;;;;12.40;4.87;;;-0.90;99.90;;;;;;5033239;28;20193;-81
2024/01/21 08:59:39;;;;;;;7.70;4.87;;;-0.80;99.90;;;;;;5032820;28;20265;-81
2024/01/21 09:02:05;;;;;;;6.30;4.30;;;-0.70;99.90;;;;;;5033453;28;20285;-81
2024/01/21 09:04:30;;;;;;;11.13;5.20;;;-0.70;99.90;;;;;;5042147;28;20812;-81
2024/01/21 09:06:56;;;;;;;10.90;4.90;;;-0.70;99.90;;;;;;5048796;28;20476;-81
2024/01/21 09:09:21;;;;;;;9.40;4.47;;;-0.60;99.90;;;;;;5033414;28;20189;-81
2024/01/21 09:11:51;;;;;;;10.40;4.63;;;-0.70;99.90;;;;;;5033044;28;20669;-81
2024/01/21 09:14:17;;;;;;;10.50;5.23;;;-0.70;99.90;;;;;;5038753;28;20274;-74
2024/01/21 09:16:42;;;;;;;6.90;4.57;;;-0.80;99.90;;;;;;5035320;28;20421;-74
2024/01/21 09:19:09;;;;;;;10.80;4.87;;;-0.90;99.90;;;;;;5024982;28;20853;-74
2024/01/21 09:21:34;;;;;;;12.17;4.60;;;-0.90;99.90;;;;;;5039358;28;20724;-74
2024/01/21 09:24:03;;;;;;;11.70;4.60;;;-0.80;99.90;;;;;;5041786;28;20500;-82
2024/01/21 09:26:30;;;;;;;9.20;4.33;;;-0.70;99.90;;;;;;5032981;28;20261;-82
2024/01/21 09:28:55;;;;;;;10.83;5.63;;;-0.70;99.90;;;;;;5032543;28;20424;-82
2024/01/21 09:31:21;;;;;;;11.97;5.80;;;-0.60;99.90;;;;;;5032730;28;20417;-81
2024/01/21 09:33:46;;;;;;;10.97;5.50;;;-0.60;99.90;;;;;;5032222;28;20274;-82
2024/01/21 09:36:12;;;;;;;11.53;4.10;;;-0.50;99.90;;;;;;5037652;28;20201;-82
2024/01/21 09:38:37;;;;;;;14.00;6.33;;;-0.50;99.90;;;;;;5052470;28;20647;-82
2024/01/21 09:41:23;;;;;;;9.70;5.17;;;-0.50;99.90;;;;;;5034077;28;20190;-82
2024/01/21 09:43:48;;;;;;;14.50;5.80;;;-0.40;99.90;;;;;;5018778;28;20424;-74
2024/01/21 09:46:15;;;;;;;11.20;5.50;;;-0.30;99.90;;;;;;5032303;28;20425;-74
2024/01/21 09:48:40;;;;;;;10.50;5.57;;;-0.30;99.90;;;;;;5032100;28;20198;-82
2024/01/21 09:51:06;;;;;;;15.03;6.87;;;-0.30;99.80;;;;;;5032722;28;20421;-82
2024/01/21 09:53:32;;;;;;;9.07;5.10;;;-0.30;99.90;;;;;;5032369;28;20183;-75
2024/01/21 09:56:09;;;;;;;12.70;6.00;;;-0.20;99.90;;;;;;5032191;28;20460;-75
2024/01/21 09:58:43;;;;;;;9.97;4.80;;;-0.10;99.90;;;;;;5043625;28;20433;-82
2024/01/21 10:01:09;;;;;;;10.70;5.50;;;-0.10;99.90;;;;;;5032677;28;20417;-82
2024/01/21 10:03:35;;;;;;;8.67;5.00;;;0.10;99.90;;;;;;5034702;28;20432;-74
2024/01/21 10:06:01;;;;;;;11.20;5.40;;;0.20;99.90;;;;;;5042326;28;20214;-75
2024/01/21 10:08:27;;;;;;;12.23;6.37;;;0.30;99.90;;;;;;5032087;28;20448;-75
2024/01/21 10:10:54;;;;;;;10.77;5.20;;;0.50;99.90;;;;;;5032000;28;20174;-75
2024/01/21 10:13:19;;;;;;;13.10;4.43;;;0.50;99.90;;;;;;5031504;28;20429;-75
2024/01/21 10:15:45;;;;;;;10.97;5.90;;;0.50;99.90;;;;;;5039493;28;20487;-75
2024/01/21 10:18:10;;;;;;;21.47;7.57;;;0.60;99.90;;;;;;5031046;28;20265;-81
2024/01/21 10:20:36;;;;;;;15.53;5.37;;;0.80;99.90;;;;;;5031454;28;20213;-81
2024/01/21 10:23:10;;;;;;;10.80;5.00;;;0.80;99.90;;;;;;5031686;28;20210;-81
2024/01/21 10:25:36;;;;;;;15.27;5.20;;;1.00;99.90;;;;;;5031993;28;20428;-80
2024/01/21 10:28:01;;;;;;;14.07;5.83;;;1.10;99.90;;;;;;5035221;28;20446;-81
2024/01/21 10:30:27;;;;;;;8.87;4.40;;;1.30;99.60;;;;;;5040890;28;20424;-80
2024/01/21 10:32:53;;;;;;;13.03;4.63;;;1.30;99.60;;;;;;5031784;28;20265;-81
2024/01/21 10:35:19;;;;;;;8.20;4.50;;;1.40;99.40;;;;;;5032886;28;20730;-80
2024/01/21 10:37:44;;;;;;;11.83;3.93;;;1.50;99.40;;;;;;5050608;28;21302;-76
2024/01/21 10:40:10;;;;;;;7.43;3.23;;;1.60;99.20;;;;;;5042930;28;20175;-76
2024/01/21 10:42:36;;;;;;;4.83;2.77;;;1.80;98.50;;;;;;5033018;28;20178;-80
2024/01/21 10:45:02;;;;;;;7.20;3.00;;;2.00;97.30;;;;;;5037956;28;20417;-81
2024/01/21 10:47:30;;;;;;;7.43;3.20;;;2.10;96.90;;;;;;5032362;28;20533;-81
2024/01/21 10:49:57;;;;;;;5.87;3.20;;;2.10;97.00;;;;;;5042930;28;20928;-81
2024/01/21 10:52:23;;;;;;;4.80;2.80;;;2.20;96.40;;;;;;5035390;28;20417;-78
2024/01/21 10:54:49;;;;;;;6.33;3.03;;;4.30;96.50;;;;;;5034021;28;20590;-77
2024/01/21 10:57:15;;;;;;;5.13;2.80;;;2.40;95.40;;;;;;5033764;28;20675;-81
2024/01/21 10:59:41;;;;;;;7.53;3.27;;;2.40;96.10;;;;;;5040137;28;20729;-81
2024/01/21 11:02:08;;;;;;;5.87;2.93;;;2.30;96.40;;;;;;5032168;28;20183;-82
2024/01/21 11:04:35;;;;;;;12.13;3.97;;;2.30;96.80;;;;;;5031309;28;20182;-78
2024/01/21 11:07:03;;;;;;;6.90;3.50;;;2.70;95.70;;;;;;5031168;28;20528;-78
2024/01/21 11:09:32;;;;;;;7.03;3.70;;;2.60;95.00;;;;;;5031590;28;20711;-81
2024/01/21 11:11:58;;;;;;;6.43;3.33;;;3.80;95.70;;;;;;5037132;28;20430;-81
2024/01/21 11:14:37;;;;;;;8.60;3.67;;;2.70;95.40;;;;;;5053666;28;20822;-79
2024/01/21 11:17:04;;;;;;;8.77;3.50;;;4.70;96.80;;;;;;5014246;28;20186;-79
2024/01/21 11:19:54;;;;;;;9.07;3.80;;;2.50;96.10;;;;;;5032942;28;20424;-79
2024/01/21 11:22:23;;;;;;;9.20;3.93;;;2.60;96.00;;;;;;5040849;28;20413;-79
2024/01/21 11:24:55;;;;;;;6.70;4.03;;;2.50;96.60;;;;;;5021476;28;20456;-80
2024/01/21 11:27:30;;;;;;;12.20;5.43;;;2.40;97.50;;;;;;5030865;28;20425;-80
2024/01/21 11:29:57;;;;;;;14.00;4.70;;;2.40;97.60;;;;;;5030301;28;20820;-79
2024/01/21 11:32:28;;;;;;;10.53;5.10;;;2.40;97.00;;;;;;5030391;28;20457;-81
2024/01/21 11:34:55;;;;;;;10.80;4.70;;;2.30;97.40;;;;;;5030422;28;20472;-81
2024/01/21 11:37:22;;;;;;;8.17;3.93;;;2.20;98.50;;;;;;5030900;28;20441;-81
2024/01/21 11:39:49;;;;;;;11.10;5.13;;;2.20;98.60;;;;;;5022301;28;20432;-81
2024/01/21 11:42:15;;;;;;;16.07;4.90;;;3.10;98.70;;;;;;5050680;28;20487;-81
2024/01/21 11:44:40;;;;;;;7.43;4.23;;;3.30;98.90;;;;;;5025873;28;20451;-80
2024/01/21 11:47:07;;;;;;;9.30;4.43;;;2.30;98.00;;;;;;5038550;28;20417;-81
2024/01/21 11:49:34;;;;;;;10.10;4.67;;;2.30;97.40;;;;;;5042714;28;20251;-78
2024/01/21 11:52:05;;;;;;;9.63;4.67;;;3.10;97.80;;;;;;5031409;28;20417;-80
2024/01/21 11:54:34;;;;;;;7.90;4.30;;;2.50;97.20;;;;;;5015234;28;20515;-80
2024/01/21 11:57:00;;;;;;;11.60;4.50;;;2.40;97.70;;;;;;5031119;28;20462;-80
2024/01/21 11:59:26;;;;;;;9.73;4.67;;;2.50;98.00;;;;;;5041462;28;20512;-80
2024/01/21 12:01:55;;;;;;;10.90;3.97;;;2.50;97.90;;;;;;5033684;28;20522;-80
2024/01/21 12:04:22;;;;;;;12.17;4.53;;;3.80;98.40;;;;;;5041230;28;20236;-81
2024/01/21 12:06:48;;;;;;;7.37;4.30;;;3.90;97.60;;;;;;5045035;28;20420;-81
2024/01/21 12:09:14;;;;;;;11.70;4.43;;;3.80;96.80;;;;;;5030967;28;20465;-80
2024/01/21 12:11:41;;;;;;;11.67;4.60;;;3.20;96.50;;;;;;5030726;28;20464;-80
2024/01/21 12:14:08;;;;;;;5.93;4.03;;;3.40;96.40;;;;;;5040038;28;20210;-80
2024/01/21 12:16:35;;;;;;;8.93;4.03;;;3.60;95.70;;;;;;5019604;28;20426;-80
2024/01/21 12:19:01;;;;;;;6.07;2.83;;;3.60;95.90;;;;;;5041571;28;20436;-80
2024/01/21 12:21:28;;;;;;;5.83;3.13;;;4.10;95.90;;;;;;5035688;28;20949;-82
2024/01/21 12:23:54;;;;;;;5.83;3.57;;;4.50;96.10;;;;;;5041683;28;20464;-82
2024/01/21 12:26:21;;;;;;;6.23;3.30;;;3.70;95.80;;;;;;5050148;28;20424;-82
2024/01/21 12:28:57;;;;;;;6.10;2.93;;;3.80;95.70;;;;;;5041552;28;20182;-79
2024/01/21 12:31:34;;;;;;;6.30;3.70;;;3.90;95.70;;;;;;5030765;28;20441;-80
2024/01/21 12:34:02;;;;;;;9.37;3.77;;;3.90;95.00;;;;;;5030641;28;20448;-79
2024/01/21 12:36:30;;;;;;;16.20;3.40;;;4.60;95.00;;;;;;5030373;28;20465;-80